Overview Statistics Trail Chart Weather Telemetry Raw packets
 

This is the latest recevied weather packets stored in our database for station/object KC0OOO-WX. If no packets are shown the sender has not sent any weather packets the latest 10 day(s).

<< 16 17 18 19 20 21 22 >>
Time Temp. Humidity Pressure Rain* Wind** Luminosity Snow
1777561086 6.11° C 53% 1018.6 hPa 0 mm - - -
1777560486 5° C 55% 1018.6 hPa 0 mm - - -
1777559886 3.33° C 59% 1018.6 hPa 0 mm - - -
1777559286 2.22° C 62% 1018.6 hPa 0 mm - - -
1777558686 1.11° C 66% 1018.6 hPa 0 mm - - -
1777558086 0.56° C 67% 1018.6 hPa 0 mm - - -
1777557486 0.56° C 67% 1018.6 hPa 0 mm - - -
1777556886 0.56° C 67% 1018.6 hPa 0 mm - - -
1777556286 0° C 69% 1018.6 hPa 0 mm - - -
1777555686 0° C 68% 1018.6 hPa 0 mm - - -
1777555086 0° C 67% 1018.3 hPa 0 mm - - -
1777554456 -0.56° C 67% 1018.3 hPa 0 mm - - -
1777553856 -0.56° C 68% 1018.3 hPa 0 mm - - -
1777553256 -0.56° C 67% 1018.3 hPa 0 mm - - -
1777552656 -0.56° C 66% 1018.3 hPa 0 mm - - -
1777552056 -0.56° C 65% 1018.3 hPa 0 mm - - -
1777551426 0° C 64% 1018.3 hPa 0 mm - - -
1777550826 0° C 64% 1018.3 hPa 0 mm - - -
1777550226 0° C 65% 1018.3 hPa 0 mm - - -
1777549626 -0.56° C 63% 1018.3 hPa 0 mm - - -
1777549026 -0.56° C 63% 1018.3 hPa 0 mm - - -
1777548426 -0.56° C 62% 1018.3 hPa 0 mm - - -
1777547826 -0.56° C 63% 1018.3 hPa 0 mm - - -
1777547225 -0.56° C 64% 1018.3 hPa 0 mm - - -
1777546625 -0.56° C 62% 1018.6 hPa 0 mm - - -

* Rain latest hour (hover to see other rain measurements)
** Current wind speed in m/s (hover to see current wind gust speed)